Time;durP1;ratioP1;P1;durP2;ratioP2;P2;SDS_P1;SDS_P2;PMS_P1;PMS_P2;Temp;Humidity;BMP_temperature;BMP_pressure;BME280_temperature;BME280_humidity;BME280_pressure;Samples;Min_cycle;Max_cycle;Signal;HPM_P1;HPM_P2
2022/02/10 00:22:10;;;;;;;;;;;3.60;99.90;;;;;;5060925;28;19962;-67
2022/02/10 00:35:59;;;;;;;;;;;3.50;99.90;;;;;;5055794;28;19936;-67
2022/02/10 00:38:33;;;;;;;;;;;3.40;99.90;;;;;;5063585;28;19940;-67
2022/02/10 00:41:00;;;;;;;;;;;3.40;99.90;;;;;;5053907;28;19924;-67
2022/02/10 00:43:28;;;;;;;;;;;3.40;99.90;;;;;;5068811;28;20383;-67
2022/02/10 00:45:55;;;;;;;;;;;3.40;99.90;;;;;;5069607;28;19966;-67
2022/02/10 00:48:22;;;;;;;;;;;3.40;99.90;;;;;;5062755;28;19931;-67
2022/02/10 00:50:51;;;;;;;;;;;3.40;99.90;;;;;;5059609;28;19985;-67
2022/02/10 00:53:40;;;;;;;;;;;3.30;99.90;;;;;;5064552;28;20391;-67
2022/02/10 00:56:09;;;;;;;;;;;3.30;99.90;;;;;;5067146;28;20423;-67
2022/02/10 00:58:41;;;;;;;;;;;3.30;99.90;;;;;;5068082;28;20024;-67
2022/02/10 01:24:36;;;;;;;;;;;3.00;99.90;;;;;;5062434;28;20256;-68
2022/02/10 01:29:49;;;;;;;;;;;3.00;99.90;;;;;;5068722;28;19924;-68
2022/02/10 01:32:17;;;;;;;;;;;3.00;99.90;;;;;;5069466;28;19955;-67
2022/02/10 01:34:50;;;;;;;;;;;3.00;99.90;;;;;;5061791;28;19920;-67
2022/02/10 01:37:17;;;;;;;;;;;2.90;99.90;;;;;;5053009;28;19980;-67
2022/02/10 01:39:53;;;;;;;;;;;2.90;99.90;;;;;;5058826;28;20333;-67
2022/02/10 02:04:18;;;;;;;;;;;2.70;99.90;;;;;;5067621;28;20287;-67
2022/02/10 02:06:47;;;;;;;;;;;2.70;99.90;;;;;;5084970;28;20750;-68
2022/02/10 02:09:16;;;;;;;;;;;2.60;99.90;;;;;;5065803;28;19963;-67
2022/02/10 02:11:44;;;;;;;;;;;2.60;99.90;;;;;;5067339;28;20383;-67
2022/02/10 02:14:14;;;;;;;;;;;2.60;99.90;;;;;;5062485;28;19928;-66
2022/02/10 02:16:45;;;;;;;;;;;2.60;99.90;;;;;;5069290;28;19936;-66
2022/02/10 02:19:13;;;;;;;;;;;2.60;99.90;;;;;;5051494;28;19926;-67
2022/02/10 02:21:40;;;;;;;;;;;2.60;99.90;;;;;;5065369;28;19931;-67
2022/02/10 02:24:08;;;;;;;;;;;2.60;99.90;;;;;;5068534;28;20276;-67
2022/02/10 02:26:36;;;;;;;;;;;2.60;99.90;;;;;;5062689;28;19993;-66
2022/02/10 02:29:07;;;;;;;;;;;2.60;99.90;;;;;;5069799;28;19924;-66
2022/02/10 02:31:46;;;;;;;;;;;2.60;99.90;;;;;;5072294;28;19927;-66
2022/02/10 03:10:05;;;;;;;;;;;2.40;99.90;;;;;;5011731;28;20269;-66
2022/02/10 03:12:35;;;;;;;;;;;2.40;99.90;;;;;;5069683;28;20418;-67
2022/02/10 03:15:05;;;;;;;;;;;2.40;99.90;;;;;;5072484;28;19928;-67
2022/02/10 03:20:55;;;;;;;;;;;2.30;99.90;;;;;;4970573;28;19930;-67
2022/02/10 04:07:52;;;;;;;;;;;2.00;99.90;;;;;;5069085;28;19943;-67
2022/02/10 04:21:13;;;;;;;;;;;1.90;99.90;;;;;;5007219;28;19932;-67
2022/02/10 04:26:38;;;;;;;;;;;1.80;99.90;;;;;;5002874;28;19959;-67
2022/02/10 04:32:24;;;;;;;;;;;1.80;99.90;;;;;;5007895;28;19930;-67
2022/02/10 04:54:37;;;;;;;;;;;1.70;99.90;;;;;;4979239;28;20362;-67
2022/02/10 05:05:47;;;;;;;;;;;1.80;99.90;;;;;;4941061;29;20369;-67
2022/02/10 05:33:00;;;;;;;;;;;1.80;99.90;;;;;;4970230;28;19938;-67
2022/02/10 05:38:04;;;;;;;;;;;1.70;99.90;;;;;;5015796;28;19969;-67
2022/02/10 05:51:51;;;;;;;;;;;1.80;99.90;;;;;;5019508;28;19993;-67
2022/02/10 06:49:25;;;;;;;;;;;1.80;99.90;;;;;;5055144;28;19921;-66
2022/02/10 07:11:04;;;;;;;;;;;2.20;99.90;;;;;;5065422;28;19924;-66
2022/02/10 07:50:38;;;;;;;;;;;3.40;99.90;;;;;;4978607;28;19956;-67
2022/02/10 07:57:51;;;;;;;;;;;3.60;99.90;;;;;;4973691;28;19988;-67
2022/02/10 09:08:47;;;;;;;;;;;5.60;99.90;;;;;;5031867;28;19931;-67
2022/02/10 10:00:24;;;;;;;;;;;8.50;99.90;;;;;;5062775;28;19936;-67
2022/02/10 10:02:34;;;;;;;;;;;8.80;99.90;;;;;;5048344;28;19924;-67
2022/02/10 10:05:19;;;;;;;;;;;9.00;99.90;;;;;;5062604;28;19928;-67
2022/02/10 10:08:15;;;;;;;;;;;9.10;99.90;;;;;;5068112;28;19924;-67
2022/02/10 10:16:39;;;;;;;;;;;9.50;99.90;;;;;;5063665;28;19920;-66
2022/02/10 10:19:33;;;;;;;;;;;9.60;99.90;;;;;;5069107;28;20459;-67
2022/02/10 10:24:56;;;;;;;;;;;9.80;99.90;;;;;;5067132;28;19998;-68
2022/02/10 10:27:42;;;;;;;;;;;9.90;99.90;;;;;;5069749;28;19920;-65
2022/02/10 10:44:15;;;;;;;;;;;10.50;99.90;;;;;;5064475;28;19934;-66
2022/02/10 10:50:46;;;;;;;;;;;11.40;99.90;;;;;;5049886;28;20367;-66
2022/02/10 10:56:14;;;;;;;;;;;11.20;99.90;;;;;;5064308;28;20474;-67
2022/02/10 11:38:38;;;;;;;12.25;5.32;;;9.90;99.90;;;;;;5070334;28;20079;-65
2022/02/10 11:47:34;;;;;;;;;;;9.80;99.90;;;;;;4970101;28;20058;-65
2022/02/10 12:31:06;;;;;;;;;;;9.60;99.90;;;;;;5059631;28;20303;-66
2022/02/10 14:13:14;;;;;;;11.15;4.82;;;8.80;99.90;;;;;;5064136;28;20392;-66
2022/02/10 14:20:55;;;;;;;10.15;5.20;;;8.70;99.90;;;;;;5072217;28;20568;-66
2022/02/10 14:28:23;;;;;;;12.13;5.32;;;8.50;99.90;;;;;;5071787;28;20048;-65
2022/02/10 14:30:50;;;;;;;9.30;4.40;;;8.40;99.90;;;;;;5072028;28;20524;-67
2022/02/10 14:33:24;;;;;;;9.82;5.47;;;8.50;99.90;;;;;;5073133;28;20473;-67
2022/02/10 14:36:03;;;;;;;9.65;5.63;;;8.40;99.90;;;;;;5064548;28;20053;-66
2022/02/10 14:38:48;;;;;;;10.57;5.55;;;8.40;99.90;;;;;;5067476;28;20517;-66
2022/02/10 15:46:02;;;;;;;15.98;7.50;;;8.00;99.90;;;;;;4971077;28;20513;-66
2022/02/10 15:55:55;;;;;;;13.32;7.45;;;7.80;99.90;;;;;;4968259;28;20049;-64
2022/02/10 16:17:27;;;;;;;11.30;6.13;;;7.60;99.90;;;;;;5010459;28;20069;-66
2022/02/10 16:19:55;;;;;;;10.27;5.82;;;7.60;99.90;;;;;;4994447;28;20054;-67
2022/02/10 16:22:25;;;;;;;13.98;6.10;;;7.50;99.90;;;;;;5010072;28;20053;-67
2022/02/10 16:25:01;;;;;;;11.73;6.93;;;7.50;99.90;;;;;;5006725;28;20448;-67
2022/02/10 16:27:32;;;;;;;12.77;6.53;;;7.50;99.90;;;;;;5012683;28;20511;-66
2022/02/10 16:30:13;;;;;;;10.65;6.00;;;7.50;99.90;;;;;;5011143;28;20050;-65
2022/02/10 16:32:45;;;;;;;9.95;5.45;;;7.50;99.90;;;;;;5014170;28;20745;-67
2022/02/10 16:35:17;;;;;;;11.13;5.97;;;7.50;99.90;;;;;;5005423;28;20411;-67
2022/02/10 16:37:49;;;;;;;;;;;7.50;99.90;;;;;;5011765;28;20054;-66
2022/02/10 16:40:24;;;;;;;11.32;6.60;;;7.50;99.90;;;;;;5019369;28;19959;-66
2022/02/10 16:42:56;;;;;;;12.80;6.53;;;7.50;99.90;;;;;;5065354;28;20155;-68
2022/02/10 16:45:28;;;;;;;;;;;7.50;99.90;;;;;;5053611;28;20569;-68
2022/02/10 16:48:01;;;;;;;9.80;6.53;;;7.50;99.90;;;;;;5056986;28;20056;-66
2022/02/10 16:50:33;;;;;;;12.38;7.18;;;7.40;99.90;;;;;;5062556;28;20045;-66
2022/02/10 16:53:10;;;;;;;13.48;6.70;;;7.40;99.90;;;;;;5070038;28;20037;-67
2022/02/10 16:55:54;;;;;;;10.18;6.15;;;7.40;99.90;;;;;;5060646;28;20045;-66
2022/02/10 17:18:23;;;;;;;13.30;6.57;;;7.30;99.90;;;;;;4954932;28;20475;-66
2022/02/10 17:29:28;;;;;;;10.95;5.72;;;7.30;99.90;;;;;;4922079;28;20051;-67
2022/02/10 17:45:48;;;;;;;11.45;5.45;;;7.10;99.90;;;;;;5001623;28;20049;-67
2022/02/10 17:53:46;;;;;;;6.32;4.00;;;7.00;99.90;;;;;;5006019;28;20053;-66
2022/02/10 17:56:14;;;;;;;8.25;4.13;;;7.00;99.90;;;;;;5009000;28;20093;-67
2022/02/10 17:58:41;;;;;;;6.93;4.03;;;7.00;99.90;;;;;;5006107;28;20049;-66
2022/02/10 18:01:12;;;;;;;7.93;4.65;;;7.00;99.90;;;;;;4997654;28;20168;-66
2022/02/10 18:03:39;;;;;;;7.57;4.30;;;7.00;99.90;;;;;;5002593;28;20493;-67
2022/02/10 18:08:44;;;;;;;10.90;4.90;;;6.90;99.90;;;;;;4999154;28;20165;-67
2022/02/10 18:13:57;;;;;;;6.38;3.80;;;6.90;99.90;;;;;;5029219;28;20041;-68
2022/02/10 18:16:40;;;;;;;8.00;4.25;;;6.90;99.90;;;;;;5059591;28;20590;-67
2022/02/10 18:19:22;;;;;;;8.00;4.15;;;6.90;99.90;;;;;;5069892;28;20086;-66
2022/02/10 19:10:15;;;;;;;12.57;6.10;;;6.90;99.90;;;;;;5070310;28;20056;-67
2022/02/10 19:12:45;;;;;;;11.27;6.00;;;6.90;99.90;;;;;;5069506;28;20352;-67
2022/02/10 19:15:23;;;;;;;11.20;6.22;;;6.90;99.90;;;;;;5064662;28;20044;-66
2022/02/10 19:17:52;;;;;;;11.90;6.15;;;6.80;99.90;;;;;;5040964;28;20483;-66
2022/02/10 19:20:21;;;;;;;10.75;6.47;;;6.80;99.90;;;;;;5051963;28;20045;-67
2022/02/10 19:22:49;;;;;;;13.90;6.45;;;6.80;99.90;;;;;;5053459;28;20075;-67
2022/02/10 19:25:17;;;;;;;9.77;6.15;;;6.80;99.90;;;;;;5054382;28;20045;-67
2022/02/10 19:27:44;;;;;;;11.45;6.57;;;6.70;99.90;;;;;;5059480;28;20044;-68
2022/02/10 19:30:15;;;;;;;10.90;5.85;;;6.60;99.90;;;;;;5047712;28;20052;-66
2022/02/10 19:32:47;;;;;;;12.55;6.63;;;6.60;99.90;;;;;;5066147;28;20404;-67
2022/02/10 19:35:16;;;;;;;13.15;6.68;;;6.60;99.90;;;;;;5051444;28;20127;-66
2022/02/10 19:37:45;;;;;;;14.98;7.15;;;6.50;99.90;;;;;;5035760;28;20476;-66
2022/02/10 19:40:12;;;;;;;12.50;6.63;;;6.50;99.90;;;;;;5056716;28;20056;-66
2022/02/10 19:42:42;;;;;;;12.27;6.25;;;6.40;99.90;;;;;;5050967;28;20111;-66
2022/02/10 19:45:10;;;;;;;12.32;6.45;;;6.40;99.90;;;;;;5052542;28;20114;-67
2022/02/10 19:47:38;;;;;;;11.75;6.75;;;6.40;99.90;;;;;;5024070;28;1180116;-68
2022/02/10 19:50:11;;;;;;;11.93;6.60;;;6.40;99.90;;;;;;5071405;28;20047;-67
2022/02/10 19:52:49;;;;;;;11.98;6.97;;;6.30;99.90;;;;;;5072300;28;20106;-66
2022/02/10 19:55:22;;;;;;;12.88;6.55;;;6.30;99.90;;;;;;5066915;28;20041;-67
2022/02/10 19:57:56;;;;;;;10.70;6.13;;;6.40;99.90;;;;;;5041143;28;20415;-67
2022/02/10 20:00:35;;;;;;;12.50;6.35;;;6.30;99.90;;;;;;5057217;28;20045;-65
2022/02/10 20:03:10;;;;;;;14.63;6.53;;;6.30;99.90;;;;;;5059436;28;20129;-67
2022/02/10 20:05:44;;;;;;;10.68;5.80;;;6.30;99.90;;;;;;5065764;28;20147;-67
2022/02/10 20:08:13;;;;;;;13.15;6.22;;;6.30;99.90;;;;;;5056103;28;20036;-67
2022/02/10 20:10:41;;;;;;;12.20;5.95;;;6.30;99.90;;;;;;5070554;28;20514;-68
2022/02/10 20:13:15;;;;;;;15.05;6.10;;;6.40;99.90;;;;;;5052583;28;20090;-67
2022/02/10 20:15:48;;;;;;;11.32;6.70;;;6.40;99.90;;;;;;5061544;28;20044;-62
2022/02/10 20:18:15;;;;;;;10.27;6.05;;;6.30;99.90;;;;;;5070724;28;20056;-66
2022/02/10 20:20:43;;;;;;;12.13;7.07;;;6.30;99.90;;;;;;5052856;28;20043;-66
2022/02/10 20:23:11;;;;;;;12.50;6.20;;;6.30;99.90;;;;;;5064757;28;20511;-67
2022/02/10 20:25:58;;;;;;;12.63;6.63;;;6.20;99.90;;;;;;5041674;28;20044;-66
2022/02/10 20:28:27;;;;;;;12.20;6.45;;;6.20;99.90;;;;;;5070682;28;20047;-67
2022/02/10 20:31:00;;;;;;;12.85;7.03;;;6.20;99.90;;;;;;5046510;28;20051;-67
2022/02/10 20:33:29;;;;;;;11.95;7.13;;;6.20;99.90;;;;;;5059974;28;20045;-66
2022/02/10 20:36:00;;;;;;;16.50;6.65;;;6.10;99.90;;;;;;5071336;28;20044;-65
2022/02/10 20:38:29;;;;;;;15.18;6.22;;;6.00;99.90;;;;;;5050295;28;20036;-66
2022/02/10 20:41:03;;;;;;;10.63;6.32;;;6.00;99.90;;;;;;5071245;28;20045;-66
2022/02/10 20:43:31;;;;;;;13.48;6.78;;;6.00;99.90;;;;;;5065216;28;20064;-67
2022/02/10 20:46:06;;;;;;;11.30;6.38;;;6.10;99.90;;;;;;5052059;28;20060;-68
2022/02/10 20:48:38;;;;;;;11.52;6.43;;;6.00;99.90;;;;;;5071560;28;20466;-66
2022/02/10 20:51:09;;;;;;;12.57;6.57;;;6.00;99.90;;;;;;5059022;28;20044;-65
2022/02/10 20:53:39;;;;;;;11.55;6.15;;;6.00;99.90;;;;;;5066009;28;20507;-68
2022/02/10 20:56:09;;;;;;;11.98;6.85;;;6.00;99.90;;;;;;5063980;28;20491;-66
2022/02/10 20:58:38;;;;;;;13.15;7.00;;;5.90;99.90;;;;;;5047067;28;20071;-67
2022/02/10 21:01:09;;;;;;;13.45;6.35;;;5.80;99.90;;;;;;5071407;28;20063;-65
2022/02/10 21:03:37;;;;;;;14.67;7.17;;;5.90;99.90;;;;;;5071731;28;20055;-66
2022/02/10 21:08:59;;;;;;;11.82;6.55;;;5.80;99.90;;;;;;5070850;28;20127;-65
2022/02/10 21:11:28;;;;;;;13.15;6.93;;;5.70;99.90;;;;;;5063978;28;20443;-66
2022/02/10 21:14:02;;;;;;;12.88;6.38;;;5.70;99.90;;;;;;5041306;28;20120;-64
2022/02/10 21:16:29;;;;;;;11.02;6.45;;;5.70;99.90;;;;;;5069664;28;20394;-66
2022/02/10 21:18:57;;;;;;;11.93;6.07;;;5.60;99.90;;;;;;5050773;28;20037;-65
2022/02/10 21:21:26;;;;;;;11.73;6.40;;;5.60;99.90;;;;;;5065314;28;20434;-66
2022/02/10 21:23:59;;;;;;;11.23;6.13;;;5.50;99.90;;;;;;5065509;28;20050;-67
2022/02/10 21:26:32;;;;;;;12.93;6.22;;;5.50;99.90;;;;;;5068699;28;20040;-66
2022/02/10 21:29:03;;;;;;;11.93;6.13;;;5.50;99.90;;;;;;5068140;28;20063;-66
2022/02/10 21:31:31;;;;;;;11.07;6.20;;;5.40;99.90;;;;;;5069444;28;20047;-66
2022/02/10 22:00:40;;;;;;;11.70;6.28;;;5.30;99.90;;;;;;5069745;28;20049;-67
2022/02/10 22:16:51;;;;;;;13.10;6.07;;;5.50;99.90;;;;;;5065127;28;20454;-66
2022/02/10 22:19:22;;;;;;;11.60;6.88;;;5.50;99.90;;;;;;5064286;28;20056;-66
2022/02/10 22:21:56;;;;;;;12.10;6.40;;;5.60;99.90;;;;;;5057874;28;20052;-66
2022/02/10 22:24:24;;;;;;;12.57;6.65;;;5.60;99.90;;;;;;5046842;28;20472;-66
2022/02/10 22:26:53;;;;;;;13.18;6.85;;;5.70;99.90;;;;;;5069032;28;20041;-67
2022/02/10 22:31:57;;;;;;;13.32;6.95;;;5.70;99.90;;;;;;5064507;28;20132;-68
2022/02/10 22:37:01;;;;;;;12.40;6.40;;;5.70;99.90;;;;;;5070148;28;20044;-66
2022/02/10 22:39:34;;;;;;;12.55;7.35;;;5.60;99.90;;;;;;5047350;28;20414;-67
2022/02/10 22:42:01;;;;;;;11.52;6.78;;;5.60;99.90;;;;;;5067010;28;20044;-67
2022/02/10 22:44:29;;;;;;;12.32;6.90;;;5.60;99.90;;;;;;5053544;28;20041;-67
2022/02/10 22:46:56;;;;;;;12.90;7.32;;;5.60;99.90;;;;;;5053919;28;20072;-67
2022/02/10 22:49:23;;;;;;;11.60;6.85;;;5.60;99.90;;;;;;5054165;28;20083;-66
2022/02/10 22:51:51;;;;;;;12.77;6.90;;;5.60;99.90;;;;;;5056349;28;20044;-66
2022/02/10 22:54:19;;;;;;;10.82;6.55;;;5.70;99.90;;;;;;5044692;28;20053;-66
2022/02/10 22:56:47;;;;;;;13.05;7.00;;;5.70;99.90;;;;;;5057511;28;20594;-67
2022/02/10 22:59:15;;;;;;;10.80;6.65;;;5.70;99.90;;;;;;5070984;28;20036;-68
2022/02/10 23:01:44;;;;;;;13.35;7.45;;;5.60;99.90;;;;;;5068658;28;20049;-67
2022/02/10 23:04:12;;;;;;;13.27;7.65;;;5.70;99.90;;;;;;5070052;28;20040;-66
2022/02/10 23:06:40;;;;;;;10.80;6.45;;;5.60;99.90;;;;;;5071549;28;20040;-67
2022/02/10 23:09:40;;;;;;;12.57;6.78;;;5.70;99.90;;;;;;5072401;28;20052;-66
2022/02/10 23:12:08;;;;;;;10.27;6.15;;;5.60;99.90;;;;;;5070307;28;20503;-66
2022/02/10 23:14:36;;;;;;;10.63;5.90;;;5.70;99.90;;;;;;5072320;28;20479;-66
2022/02/10 23:17:05;;;;;;;10.20;6.38;;;5.70;99.90;;;;;;5080210;28;20056;-66
2022/02/10 23:19:34;;;;;;;12.88;5.88;;;5.70;99.90;;;;;;5055483;28;20045;-66
2022/02/10 23:22:02;;;;;;;11.75;5.95;;;5.70;99.90;;;;;;5071320;28;20578;-66
2022/02/10 23:24:30;;;;;;;10.00;6.00;;;5.70;99.90;;;;;;5054399;28;20055;-66
2022/02/10 23:26:57;;;;;;;10.82;6.07;;;5.70;99.90;;;;;;5067176;28;20135;-66
2022/02/10 23:29:24;;;;;;;10.90;6.15;;;5.60;99.90;;;;;;5068356;28;20045;-67
2022/02/10 23:31:52;;;;;;;12.18;5.78;;;5.60;99.90;;;;;;5057104;28;20049;-66
2022/02/10 23:34:19;;;;;;;11.15;6.00;;;5.70;99.90;;;;;;5047890;28;20396;-67
2022/02/10 23:36:54;;;;;;;11.25;6.13;;;5.70;99.90;;;;;;5061721;28;20029;-66
2022/02/10 23:39:31;;;;;;;11.82;5.82;;;5.70;99.90;;;;;;5073315;28;20106;-67
2022/02/10 23:44:42;;;;;;;11.05;5.50;;;5.80;99.90;;;;;;5058661;28;20589;-66
2022/02/10 23:47:16;;;;;;;10.82;5.78;;;5.80;99.90;;;;;;5052564;28;20051;-66
2022/02/10 23:49:44;;;;;;;9.52;5.80;;;5.80;99.90;;;;;;5066542;28;20080;-67
2022/02/10 23:52:14;;;;;;;11.32;5.97;;;5.80;99.90;;;;;;5057182;28;20406;-66
2022/02/10 23:54:45;;;;;;;10.13;5.53;;;5.90;99.90;;;;;;5059070;28;20493;-66
2022/02/10 23:57:26;;;;;;;9.32;5.68;;;5.80;99.90;;;;;;5043076;28;20055;-66
